Chatham, Michigan
Current Conditions -  °F | °C
As of 3:50 PM on Tuesday 25 Nov 2014 (Local Time) from KSAW Reporting Station
Broken Clouds Broken Clouds  
Wind Chill: 14°   Ceiling: 2800
Heat Index: 23°   Visibility: 10mi
Dew Point: 14°   Wind: 8mph
Humidity: 68%   Direction: 300°WNW
Pressure: 29.96"   Gusts: NA
Location:  46.35°N, 86.93°W
Report Text: KSAW 252050Z 30007KT 10SM BKN028 M05/M10 A2996
Loading
Personal Weather Stations






























Interactive Weather Map New forecast layout! Learn more

10-Day Weather Forecast

Advertisements
Track Severe Weather on mobile